Bei Facebook empfehlenBei Twitter postenGoogle plusPinterest

Das Wetter im Erzgebirge am 10.03.2017

Wetter und Klima am 10.03.2017 Holzhau im Erzgebirge (630m ü.NN)
Letzte gemessene Temperatur und Uhrzeit der Messung23:45:00 Uhr0.60 °C
Temperatur (Maximum / Höchstwert) und Uhrzeit der Messung15:00:00 Uhr4.10 °C
Temperatur (Minimum / Tiefstwert) und Uhrzeit der Messung07:45:000.40 °C
Errechneter Absolutwert der Temperaturschwankungen zwischen Tmin und Tmax des Tages3.70 K
Errechnete Tagesmitteltemperatur1.47083 °C
Gesamt - Niederschlag des Tages (in flüssiger Form)16.57 Liter / m²
Luftdruck (Maximum / Höchstwert) und Zeitpunkt der Messung23:30:00 Uhr1021.70 hPa
Luftdruck (Minimum / Tiefstwert) und Zeitpunkt der Messung00:15:00 Uhr1011.30 hPa
Errechneter Absolutwert der Luftdruckschwankungen des Tages10.40 hPa
Höchste gemessene Windgeschwindigkeit und Uhrzeit der Messung08:30:00 Uhr21.24 km/h
Errechnete Windhäufigkeit in Relation zu den Messwerten des Tages60.41667 %
Niedrigste Windkühle (Windchill) und Zeitpunkt der Messung08:30:00 Uhr-4.70 °C
Taupunkt (Maximum / Höchstwert) und Uhrzeit der Messung15:00:00 Uhr2.80 °C
Taupunkt (Minimum / Tiefstwert) und Uhrzeit der Messung20:30:00-0.80 °C
Anzahl der automatisch eingelesenen Messwerte 96

Detaillierte Wetter- und Klima- Messwerte für den 10.03.2017 in Holzhau im Erzgebirge (630m ü.NN)
ZeitTemperaturLuftdruckRel. LuftfeuchteWindWindrichtungWindchillTaupunktNiederschlag l/m²
23:45:000.60 °C1021.60 hPa92.00 %-0.50 °C16.57
23:30:000.60 °C1021.70 hPa92.00 %-0.50 °C16.57
23:15:000.60 °C1021.60 hPa92.00 %-0.50 °C16.57
23:00:000.70 °C1021.50 hPa92.00 %-0.40 °C16.57
22:45:000.80 °C1021.40 hPa92.00 %-0.30 °C16.57
22:30:000.80 °C1021.50 hPa92.00 %-0.30 °C16.57
22:15:000.80 °C1021.40 hPa92.00 %-0.30 °C16.57
22:00:000.80 °C1021.70 hPa92.00 %-0.30 °C16.57
21:45:000.80 °C1021.50 hPa92.00 %-0.30 °C16.57
21:30:000.60 °C1021.60 hPa92.00 %-0.50 °C16.57
21:15:000.60 °C1021.60 hPa91.00 %-0.70 °C16.57
21:00:000.70 °C1021.50 hPa92.00 %-0.40 °C16.57
20:45:000.60 °C1021.50 hPa92.00 %-0.50 °C16.57
20:30:000.50 °C1021.40 hPa91.00 %-0.80 °C16.57
20:15:000.60 °C1021.20 hPa91.00 %-0.70 °C16.57
20:00:000.70 °C1021.10 hPa91.00 %-0.60 °C16.57
19:45:000.50 °C1020.80 hPa91.00 %-0.80 °C16.57
19:30:000.60 °C1020.80 hPa91.00 %-0.70 °C16.57
19:15:000.70 °C1020.60 hPa90.00 %-0.70 °C16.57
19:00:000.90 °C1020.40 hPa89.00 %-0.70 °C16.57
18:45:001.20 °C1020.20 hPa89.00 %-0.40 °C16.57
18:30:001.60 °C1020.20 hPa88.00 %4.68 km/hW1.60 °C-0.20 °C16.57
18:15:001.90 °C1020.20 hPa88.00 %4.32 km/hWNW1.90 °C0.10 °C16.57
18:00:002.40 °C1020.10 hPa87.00 %0.50 °C16.57
17:45:002.60 °C1020.00 hPa87.00 %0.70 °C16.57
17:30:002.90 °C1019.80 hPa86.00 %4.68 km/hWNW2.90 °C0.80 °C16.57
17:15:002.90 °C1019.70 hPa86.00 %5.04 km/hWNW1.70 °C0.80 °C16.57
17:00:003.20 °C1019.60 hPa86.00 %12.96 km/hWNW-0.10 °C1.10 °C16.57
16:45:003.30 °C1019.60 hPa86.00 %13.68 km/hWNW-0.10 °C1.20 °C16.57
16:30:003.30 °C1019.70 hPa86.00 %6.48 km/hN1.60 °C1.20 °C16.57
16:15:003.40 °C1019.60 hPa87.00 %2.16 km/hWNW3.40 °C1.40 °C16.57
16:00:003.50 °C1019.40 hPa87.00 %8.64 km/hNW1.20 °C1.50 °C16.57
15:45:003.50 °C1019.40 hPa88.00 %1.70 °C16.57
15:30:003.50 °C1019.40 hPa88.00 %2.16 km/hWNW3.50 °C1.70 °C16.57
15:15:003.80 °C1019.20 hPa89.00 %1.80 km/hSW3.80 °C2.20 °C16.57
15:00:004.10 °C1019.30 hPa91.00 %4.68 km/hNW4.10 °C2.80 °C16.57
14:45:003.20 °C1019.30 hPa91.00 %4.32 km/hNW3.20 °C1.90 °C16.57
14:30:003.10 °C1019.20 hPa93.00 %6.48 km/hNNO1.40 °C2.10 °C16.06
14:15:002.80 °C1019.30 hPa93.00 %8.64 km/hN0.40 °C1.80 °C16.06
14:00:002.50 °C1019.30 hPa92.00 %6.12 km/hWNW0.80 °C1.30 °C16.06
13:45:002.20 °C1019.30 hPa92.00 %7.20 km/hWNW0.10 °C1.00 °C16.06
13:30:002.00 °C1019.10 hPa92.00 %0.80 °C15.54
13:15:002.30 °C1018.80 hPa92.00 %9.36 km/hNNW-0.40 °C1.10 °C15.54
13:00:002.70 °C1018.90 hPa91.00 %2.16 km/hWNW2.70 °C1.40 °C15.02
12:45:003.20 °C1018.80 hPa92.00 %2.00 °C14.50
12:30:002.80 °C1018.70 hPa94.00 %4.32 km/hW2.80 °C1.90 °C13.98
12:15:001.90 °C1018.80 hPa94.00 %1.00 °C13.47
12:00:001.30 °C1019.00 hPa94.00 %7.92 km/hNW-1.20 °C0.40 °C12.95
11:45:001.20 °C1018.70 hPa94.00 %3.96 km/hW1.20 °C0.30 °C12.43
11:30:001.20 °C1018.70 hPa95.00 %3.60 km/hWNW1.20 °C0.50 °C12.43
11:15:001.10 °C1018.40 hPa95.00 %7.56 km/hNW-1.30 °C0.40 °C11.91
11:00:001.10 °C1018.30 hPa95.00 %9.36 km/hNNW-1.80 °C0.40 °C11.39
10:45:001.10 °C1018.00 hPa95.00 %5.76 km/hW-0.70 °C0.40 °C10.88
10:30:001.20 °C1017.90 hPa95.00 %0.50 °C10.36
10:15:001.00 °C1017.80 hPa95.00 %7.20 km/hNW-1.30 °C0.30 °C10.36
10:00:000.90 °C1017.60 hPa95.00 %3.96 km/hW0.90 °C0.20 °C9.84
09:45:000.60 °C1017.50 hPa95.00 %7.56 km/hNW-1.90 °C-0.10 °C9.32
09:30:000.60 °C1017.40 hPa95.00 %4.68 km/hNW0.60 °C-0.10 °C9.32
09:15:000.50 °C1017.00 hPa95.00 %6.12 km/hWNW-1.50 °C-0.20 °C8.80
09:00:000.70 °C1016.90 hPa95.00 %10.08 km/hW-2.50 °C0.00 °C8.80
08:45:000.60 °C1016.80 hPa95.00 %8.28 km/hW-2.10 °C-0.10 °C8.29
08:30:000.60 °C1016.30 hPa95.00 %21.24 km/hWNW-4.70 °C-0.10 °C8.29
08:15:000.60 °C1016.00 hPa95.00 %-0.10 °C8.29
08:00:000.60 °C1015.90 hPa95.00 %4.32 km/hWNW0.60 °C-0.10 °C7.77
07:45:000.40 °C1015.60 hPa95.00 %12.96 km/hWNW-3.50 °C-0.30 °C7.77
07:30:000.50 °C1015.60 hPa95.00 %8.64 km/hW-2.30 °C-0.20 °C7.25
07:15:000.60 °C1015.20 hPa95.00 %5.40 km/hNW-1.10 °C-0.10 °C7.25
07:00:000.60 °C1015.00 hPa95.00 %3.60 km/hWNW0.60 °C-0.10 °C6.73
06:45:000.60 °C1014.90 hPa95.00 %8.28 km/hNW-2.10 °C-0.10 °C6.73
06:30:000.70 °C1014.60 hPa95.00 %0.00 °C6.21
06:15:000.70 °C1014.20 hPa95.00 %6.12 km/hNNW-1.30 °C0.00 °C6.21
06:00:000.90 °C1014.00 hPa95.00 %10.08 km/hWNW-2.30 °C0.20 °C6.21
05:45:000.90 °C1013.70 hPa95.00 %3.96 km/hW0.90 °C0.20 °C5.70
05:30:000.80 °C1013.40 hPa95.00 %1.08 km/hNW0.80 °C0.10 °C5.70
05:15:000.90 °C1013.10 hPa95.00 %9.36 km/hWNW-2.10 °C0.20 °C5.70
05:00:001.10 °C1012.80 hPa95.00 %12.24 km/hNNW-2.50 °C0.40 °C5.18
04:45:001.20 °C1012.50 hPa95.00 %13.32 km/hN-2.60 °C0.50 °C5.18
04:30:001.00 °C1012.30 hPa95.00 %7.92 km/hWNW-1.50 °C0.30 °C5.18
04:15:000.80 °C1012.30 hPa95.00 %5.76 km/hN-1.00 °C0.10 °C4.66
04:00:000.90 °C1012.20 hPa95.00 %0.20 °C4.66
03:45:000.50 °C1012.00 hPa94.00 %-0.40 °C4.14
03:30:000.50 °C1011.70 hPa94.00 %-0.40 °C3.62
03:15:000.60 °C1011.60 hPa94.00 %4.68 km/hW0.60 °C-0.30 °C3.62
03:00:000.90 °C1011.60 hPa94.00 %3.60 km/hWNW0.90 °C0.00 °C3.11
02:45:001.00 °C1011.50 hPa94.00 %5.04 km/hN-0.50 °C0.10 °C2.59
02:30:000.50 °C1011.40 hPa93.00 %5.40 km/hNNW-1.20 °C-0.50 °C2.07
02:15:000.60 °C1011.50 hPa93.00 %-0.40 °C2.07
02:00:001.30 °C1011.50 hPa93.00 %0.30 °C2.07
01:45:001.90 °C1011.50 hPa93.00 %4.68 km/hWSW1.90 °C0.90 °C1.55
01:30:002.30 °C1011.40 hPa94.00 %1.40 °C1.03
01:15:002.30 °C1011.40 hPa94.00 %7.56 km/hNNW0.10 °C1.40 °C0.52
01:00:002.40 °C1011.60 hPa94.00 %3.96 km/hWNW2.40 °C1.50 °C0.52
00:45:002.40 °C1011.60 hPa93.00 %4.68 km/hNW2.40 °C1.40 °C0.52
00:30:002.30 °C1011.40 hPa93.00 %0.72 km/hSW2.30 °C1.30 °C0.52
00:15:002.50 °C1011.30 hPa93.00 %1.50 °C 
00:00:002.40 °C1011.50 hPa94.00 %1.50 °C 

Permanenter Link zu dieser Seite: Wetter im Erzgebirge am 10.03.2017
Performance-Info: Die Erstellung der Seite / Statistik(en) / Tabelle(n) erforderte 5 Datenbankserver-Abfrage(n) und dauerte 98 Millisekunden. (Dieser Messwert ist von der Gesamt-Auslastung des Servers abhängig.)
Erzgebirge - Wetter | Erzgebirge - Wetter (Mobilgeräte) | Komplette Klimadatenbank